RPB7268 SKBO-SKRG
Flight info
| Callsign | RPB7268 |
|---|---|
| Flight time | 0h 27m |
| Altitude | 24000 |
| Route | TOBK4R VASIL W36 NIRSO NIRS3C |
| Aircraft | B738/M-SDE3FGHIRWY/S |
Departure
| Time | 2026-04-24 23:54 |
|---|---|
| Airport | El Dorado International Airport (SKBO) |
Arrival
| Time | 2026-04-25 00:21 |
|---|---|
| Airport | Jose Maria Córdova International Airport (SKRG) |
| Time | Latitude | Longitude | Altitude | Speed | Heading |
|---|---|---|---|---|---|
| 2026-04-24 23:20 | 4.69940 | -74.14595 | 8369 ft | 0 kts | 155° |
| 2026-04-24 23:34 | 4.69942 | -74.14596 | 8369 ft | 2 kts | 155° |
| 2026-04-24 23:34 | 4.69947 | -74.14598 | 8369 ft | 0 kts | 155° |
| 2026-04-24 23:34 | 4.69958 | -74.14604 | 8369 ft | 2 kts | 155° |
| 2026-04-24 23:35 | 4.69973 | -74.14610 | 8369 ft | 2 kts | 155° |
| 2026-04-24 23:35 | 4.69987 | -74.14617 | 8369 ft | 2 kts | 155° |
| 2026-04-24 23:35 | 4.70003 | -74.14623 | 8369 ft | 2 kts | 176° |
| 2026-04-24 23:35 | 4.70018 | -74.14621 | 8369 ft | 2 kts | 207° |
| 2026-04-24 23:36 | 4.70008 | -74.14627 | 8369 ft | 2 kts | 213° |
| 2026-04-24 23:36 | 4.70004 | -74.14631 | 8369 ft | 0 kts | 218° |
| 2026-04-24 23:40 | 4.70003 | -74.14632 | 8369 ft | 1 kts | 218° |
| 2026-04-24 23:40 | 4.69979 | -74.14650 | 8369 ft | 7 kts | 217° |
| 2026-04-24 23:41 | 4.69928 | -74.14688 | 8369 ft | 11 kts | 217° |
| 2026-04-24 23:41 | 4.69862 | -74.14736 | 8369 ft | 11 kts | 216° |
| 2026-04-24 23:41 | 4.69801 | -74.14782 | 8369 ft | 11 kts | 217° |
| 2026-04-24 23:41 | 4.69730 | -74.14801 | 8369 ft | 12 kts | 148° |
| 2026-04-24 23:42 | 4.69668 | -74.14727 | 8369 ft | 15 kts | 127° |
| 2026-04-24 23:42 | 4.69600 | -74.14638 | 8369 ft | 17 kts | 128° |
| 2026-04-24 23:42 | 4.69532 | -74.14547 | 8369 ft | 16 kts | 126° |
| 2026-04-24 23:42 | 4.69466 | -74.14460 | 8370 ft | 15 kts | 129° |
| 2026-04-24 23:43 | 4.69402 | -74.14377 | 8369 ft | 15 kts | 127° |
| 2026-04-24 23:43 | 4.69343 | -74.14296 | 8370 ft | 14 kts | 127° |
| 2026-04-24 23:43 | 4.69284 | -74.14220 | 8370 ft | 13 kts | 128° |
| 2026-04-24 23:43 | 4.69228 | -74.14147 | 8369 ft | 13 kts | 127° |
| 2026-04-24 23:44 | 4.69187 | -74.14092 | 8369 ft | 7 kts | 131° |
| 2026-04-24 23:44 | 4.69166 | -74.14082 | 8370 ft | 2 kts | 173° |
| 2026-04-24 23:44 | 4.69153 | -74.14083 | 8370 ft | 1 kts | 193° |
| 2026-04-24 23:44 | 4.69150 | -74.14084 | 8370 ft | 0 kts | 197° |
| 2026-04-24 23:46 | 4.69147 | -74.14085 | 8370 ft | 2 kts | 200° |
| 2026-04-24 23:46 | 4.69124 | -74.14099 | 8370 ft | 5 kts | 216° |
| 2026-04-24 23:47 | 4.69098 | -74.14119 | 8370 ft | 1 kts | 216° |
| 2026-04-24 23:49 | 4.69097 | -74.14120 | 8370 ft | 1 kts | 216° |
| 2026-04-24 23:49 | 4.69070 | -74.14140 | 8371 ft | 8 kts | 217° |
| 2026-04-24 23:49 | 4.69024 | -74.14190 | 8371 ft | 12 kts | 243° |
| 2026-04-24 23:50 | 4.69031 | -74.14242 | 8371 ft | 3 kts | 305° |
| 2026-04-24 23:50 | 4.69033 | -74.14245 | 8371 ft | 0 kts | 308° |
| 2026-04-24 23:53 | 4.69139 | -74.14382 | 8370 ft | 55 kts | 307° |
| 2026-04-24 23:53 | 4.69497 | -74.14856 | 8369 ft | 114 kts | 307° |
| 2026-04-24 23:54 | 4.70082 | -74.15629 | 8371 ft | 163 kts | 307° |
| 2026-04-24 23:54 | 4.70853 | -74.16651 | 8436 ft | 199 kts | 308° |
| 2026-04-24 23:54 | 4.71723 | -74.17744 | 9048 ft | 200 kts | 308° |
| 2026-04-24 23:54 | 4.72577 | -74.18839 | 9746 ft | 199 kts | 306° |
| 2026-04-24 23:55 | 4.73313 | -74.20004 | 10372 ft | 199 kts | 288° |
| 2026-04-24 23:55 | 4.73608 | -74.21432 | 10554 ft | 220 kts | 279° |
| 2026-04-24 23:55 | 4.73931 | -74.22959 | 10879 ft | 233 kts | 285° |
| 2026-04-24 23:55 | 4.74375 | -74.24557 | 11188 ft | 245 kts | 285° |
| 2026-04-24 23:56 | 4.74753 | -74.26279 | 11387 ft | 263 kts | 271° |
| 2026-04-24 23:56 | 4.74463 | -74.28147 | 11597 ft | 284 kts | 257° |
| 2026-04-24 23:56 | 4.74015 | -74.30151 | 11939 ft | 301 kts | 258° |
| 2026-04-24 23:56 | 4.73578 | -74.32202 | 11943 ft | 301 kts | 258° |
| 2026-04-24 23:57 | 4.73157 | -74.34265 | 12348 ft | 303 kts | 259° |
| 2026-04-24 23:57 | 4.72736 | -74.36352 | 13032 ft | 308 kts | 259° |
| 2026-04-24 23:57 | 4.72312 | -74.38460 | 13776 ft | 309 kts | 259° |
| 2026-04-24 23:57 | 4.71882 | -74.40606 | 14063 ft | 322 kts | 259° |
| 2026-04-24 23:58 | 4.71440 | -74.42810 | 13961 ft | 319 kts | 259° |
| 2026-04-24 23:58 | 4.71270 | -74.44990 | 13868 ft | 312 kts | 280° |
| 2026-04-24 23:58 | 4.72040 | -74.46962 | 14044 ft | 304 kts | 302° |
| 2026-04-24 23:58 | 4.73183 | -74.48787 | 14374 ft | 314 kts | 302° |
| 2026-04-24 23:59 | 4.74343 | -74.50658 | 15049 ft | 317 kts | 302° |
| 2026-04-24 23:59 | 4.75500 | -74.52536 | 15804 ft | 316 kts | 301° |
| 2026-04-24 23:59 | 4.76662 | -74.54427 | 16422 ft | 321 kts | 302° |
| 2026-04-24 23:59 | 4.77836 | -74.56348 | 17048 ft | 325 kts | 301° |
| 2026-04-25 00:00 | 4.79017 | -74.58285 | 17655 ft | 327 kts | 301° |
| 2026-04-25 00:00 | 4.80208 | -74.60240 | 18265 ft | 331 kts | 301° |
| 2026-04-25 00:00 | 4.81412 | -74.62220 | 18611 ft | 343 kts | 301° |
| 2026-04-25 00:00 | 4.82667 | -74.64303 | 18949 ft | 354 kts | 301° |
| 2026-04-25 00:01 | 4.83954 | -74.66437 | 19389 ft | 361 kts | 301° |
| 2026-04-25 00:01 | 4.85267 | -74.68607 | 19898 ft | 365 kts | 301° |
| 2026-04-25 00:01 | 4.86587 | -74.70789 | 19967 ft | 364 kts | 301° |
| 2026-04-25 00:01 | 4.87897 | -74.72952 | 19977 ft | 363 kts | 301° |
| 2026-04-25 00:02 | 4.89215 | -74.75131 | 19950 ft | 365 kts | 301° |
| 2026-04-25 00:02 | 4.90531 | -74.77305 | 19950 ft | 365 kts | 301° |
| 2026-04-25 00:02 | 4.91851 | -74.79487 | 19946 ft | 366 kts | 301° |
| 2026-04-25 00:02 | 4.93173 | -74.81675 | 19941 ft | 367 kts | 301° |
| 2026-04-25 00:03 | 4.94499 | -74.83866 | 19905 ft | 369 kts | 301° |
| 2026-04-25 00:03 | 4.95828 | -74.86067 | 19886 ft | 369 kts | 301° |
| 2026-04-25 00:03 | 4.97156 | -74.88266 | 19874 ft | 368 kts | 301° |
| 2026-04-25 00:03 | 4.98477 | -74.90453 | 19880 ft | 366 kts | 301° |
| 2026-04-25 00:04 | 4.99805 | -74.92649 | 19919 ft | 373 kts | 301° |
| 2026-04-25 00:04 | 5.01178 | -74.94919 | 19935 ft | 388 kts | 301° |
| 2026-04-25 00:04 | 5.02579 | -74.97235 | 19935 ft | 399 kts | 301° |
| 2026-04-25 00:04 | 5.04021 | -74.99619 | 19929 ft | 400 kts | 301° |
| 2026-04-25 00:05 | 5.05457 | -75.01998 | 19923 ft | 396 kts | 301° |
| 2026-04-25 00:05 | 5.06877 | -75.04352 | 19943 ft | 393 kts | 301° |
| 2026-04-25 00:05 | 5.08290 | -75.06692 | 19948 ft | 391 kts | 301° |
| 2026-04-25 00:05 | 5.09698 | -75.09024 | 19960 ft | 390 kts | 301° |
| 2026-04-25 00:06 | 5.11102 | -75.11348 | 19989 ft | 391 kts | 301° |
| 2026-04-25 00:06 | 5.12514 | -75.13687 | 20002 ft | 392 kts | 301° |
| 2026-04-25 00:06 | 5.13930 | -75.16031 | 20022 ft | 393 kts | 301° |
| 2026-04-25 00:06 | 5.15361 | -75.18376 | 20043 ft | 395 kts | 303° |
| 2026-04-25 00:07 | 5.17056 | -75.20549 | 20067 ft | 396 kts | 314° |
| 2026-04-25 00:07 | 5.19132 | -75.22365 | 20096 ft | 397 kts | 322° |
| 2026-04-25 00:07 | 5.21315 | -75.24021 | 20096 ft | 387 kts | 321° |
| 2026-04-25 00:07 | 5.23113 | -75.25939 | 20117 ft | 371 kts | 303° |
| 2026-04-25 00:08 | 5.24460 | -75.28095 | 20118 ft | 357 kts | 303° |
| 2026-04-25 00:08 | 5.25849 | -75.30100 | 20144 ft | 343 kts | 307° |
| 2026-04-25 00:08 | 5.27285 | -75.31929 | 20003 ft | 336 kts | 309° |
| 2026-04-25 00:08 | 5.28786 | -75.33689 | 19833 ft | 329 kts | 311° |
| 2026-04-25 00:09 | 5.30294 | -75.35401 | 19529 ft | 326 kts | 311° |
| 2026-04-25 00:09 | 5.31797 | -75.37096 | 19248 ft | 324 kts | 311° |
| 2026-04-25 00:09 | 5.32815 | -75.38228 | 19020 ft | 323 kts | 315° |
| 2026-04-25 00:09 | 5.35327 | -75.39757 | 18548 ft | 323 kts | 343° |
| 2026-04-25 00:10 | 5.36831 | -75.40014 | 18224 ft | 326 kts | 355° |
| 2026-04-25 00:10 | 5.39093 | -75.40152 | 17860 ft | 326 kts | 356° |
| 2026-04-25 00:10 | 5.41359 | -75.40260 | 17540 ft | 325 kts | 356° |
| 2026-04-25 00:10 | 5.43617 | -75.40365 | 17203 ft | 325 kts | 356° |
| 2026-04-25 00:11 | 5.45859 | -75.40474 | 17023 ft | 317 kts | 356° |
| 2026-04-25 00:11 | 5.48044 | -75.40587 | 16789 ft | 313 kts | 356° |
| 2026-04-25 00:11 | 5.50215 | -75.40705 | 16481 ft | 311 kts | 356° |
| 2026-04-25 00:11 | 5.52372 | -75.40819 | 16164 ft | 310 kts | 356° |
| 2026-04-25 00:12 | 5.54487 | -75.40933 | 15868 ft | 308 kts | 356° |
| 2026-04-25 00:12 | 5.56648 | -75.41051 | 15574 ft | 306 kts | 356° |
| 2026-04-25 00:12 | 5.58747 | -75.41167 | 15268 ft | 305 kts | 356° |
| 2026-04-25 00:12 | 5.60864 | -75.41284 | 14974 ft | 304 kts | 356° |
| 2026-04-25 00:13 | 5.62980 | -75.41401 | 14664 ft | 304 kts | 356° |
| 2026-04-25 00:13 | 5.65086 | -75.41518 | 14368 ft | 303 kts | 356° |
| 2026-04-25 00:13 | 5.67187 | -75.41637 | 14059 ft | 302 kts | 356° |
| 2026-04-25 00:13 | 5.69270 | -75.41754 | 13907 ft | 295 kts | 356° |
| 2026-04-25 00:14 | 5.71293 | -75.41865 | 13773 ft | 288 kts | 356° |
| 2026-04-25 00:14 | 5.73278 | -75.41975 | 13643 ft | 282 kts | 356° |
| 2026-04-25 00:14 | 5.75216 | -75.42082 | 13514 ft | 275 kts | 356° |
| 2026-04-25 00:14 | 5.77100 | -75.42185 | 13392 ft | 268 kts | 356° |
| 2026-04-25 00:15 | 5.78961 | -75.42241 | 13141 ft | 267 kts | 359° |
| 2026-04-25 00:15 | 5.80814 | -75.42235 | 12900 ft | 266 kts | 359° |
| 2026-04-25 00:15 | 5.82664 | -75.42225 | 12636 ft | 265 kts | 359° |
| 2026-04-25 00:15 | 5.84481 | -75.42202 | 12376 ft | 264 kts | 2° |
| 2026-04-25 00:16 | 5.86313 | -75.42096 | 12121 ft | 263 kts | 2° |
| 2026-04-25 00:16 | 5.88133 | -75.42072 | 11850 ft | 262 kts | 357° |
| 2026-04-25 00:16 | 5.89927 | -75.42169 | 11760 ft | 258 kts | 357° |
| 2026-04-25 00:16 | 5.91738 | -75.42182 | 11446 ft | 261 kts | 360° |
| 2026-04-25 00:17 | 5.93564 | -75.42171 | 11099 ft | 263 kts | 359° |
| 2026-04-25 00:17 | 5.95404 | -75.42174 | 10754 ft | 265 kts | 359° |
| 2026-04-25 00:17 | 5.97241 | -75.42185 | 10411 ft | 263 kts | 360° |
| 2026-04-25 00:17 | 5.99061 | -75.42197 | 10067 ft | 259 kts | 360° |
| 2026-04-25 00:18 | 6.00841 | -75.42210 | 9713 ft | 251 kts | 359° |
| 2026-04-25 00:18 | 6.02546 | -75.42221 | 9363 ft | 236 kts | 359° |
| 2026-04-25 00:18 | 6.04128 | -75.42232 | 9078 ft | 217 kts | 359° |
| 2026-04-25 00:18 | 6.05581 | -75.42242 | 8788 ft | 203 kts | 0° |
| 2026-04-25 00:19 | 6.06941 | -75.42259 | 8567 ft | 186 kts | 360° |
| 2026-04-25 00:19 | 6.08201 | -75.42261 | 8289 ft | 178 kts | 359° |
| 2026-04-25 00:19 | 6.09411 | -75.42265 | 8064 ft | 176 kts | 360° |
| 2026-04-25 00:19 | 6.10635 | -75.42277 | 7838 ft | 177 kts | 360° |
| 2026-04-25 00:20 | 6.11866 | -75.42280 | 7598 ft | 176 kts | 359° |
| 2026-04-25 00:20 | 6.13089 | -75.42291 | 7373 ft | 176 kts | 360° |
| 2026-04-25 00:20 | 6.14306 | -75.42299 | 7132 ft | 175 kts | 359° |
| 2026-04-25 00:20 | 6.15510 | -75.42305 | 6982 ft | 167 kts | 359° |
| 2026-04-25 00:21 | 6.16498 | -75.42311 | 6986 ft | 111 kts | 359° |
| 2026-04-25 00:21 | 6.17057 | -75.42316 | 7012 ft | 50 kts | 360° |
| 2026-04-25 00:21 | 6.17372 | -75.42317 | 7019 ft | 41 kts | 359° |
| 2026-04-25 00:21 | 6.17562 | -75.42350 | 7023 ft | 20 kts | 294° |
| 2026-04-25 00:22 | 6.17566 | -75.42443 | 7023 ft | 3 kts | 269° |
| 2026-04-25 00:22 | 6.17565 | -75.42461 | 7023 ft | 3 kts | 266° |
| 2026-04-25 00:22 | 6.17557 | -75.42486 | 7021 ft | 6 kts | 243° |
| 2026-04-25 00:22 | 6.17501 | -75.42533 | 7017 ft | 15 kts | 215° |
| 2026-04-25 00:23 | 6.17415 | -75.42597 | 7016 ft | 12 kts | 216° |
| 2026-04-25 00:23 | 6.17325 | -75.42621 | 7017 ft | 14 kts | 179° |
| 2026-04-25 00:23 | 6.17234 | -75.42619 | 7017 ft | 12 kts | 179° |
| 2026-04-25 00:23 | 6.17156 | -75.42618 | 7016 ft | 12 kts | 179° |
| 2026-04-25 00:24 | 6.17072 | -75.42626 | 7015 ft | 11 kts | 203° |
| 2026-04-25 00:24 | 6.17011 | -75.42666 | 7020 ft | 10 kts | 215° |
| 2026-04-25 00:24 | 6.16957 | -75.42711 | 7018 ft | 10 kts | 232° |
| 2026-04-25 00:24 | 6.16951 | -75.42750 | 7017 ft | 5 kts | 317° |
| 2026-04-25 00:25 | 6.16974 | -75.42764 | 7019 ft | 2 kts | 329° |
| 2026-04-25 00:25 | 6.16977 | -75.42765 | 7017 ft | 0 kts | 329° |